Thunder radar more information blitzortung!


Radar de pluja more information rain snow radar


Visita la nostra xarxa de llocs de meteo:

Template documentation
and downloads

And another site



No particular awareness of the weather is required.    There are no Weather-warnings

Pagina Historial Weather Underground text

Diari Resum Juliol 12, 2017 Unitats:  Imperial    Mètric   Tant
« Previous Dia
SegĂźent Dia »
Diari Setmana Mensual Anual Personalitzada
  Maxima: Minima: Media:
Temperatura: TemperatureC °F 22.1 °F 28.8 °F
Punt de rosada: DewpointC °F 17.4 °F 19.6 °F
Humitat: Humidity % 40 % 59 %
Wind Speed: WindSpeedKMH mph 0.0 mph 9 mph
RĂ fegues de vent: WindSpeedGustKMH mph - -
Vent:- - SE
Pression baro: PressurehPa in 1012.8 in -
Precipitacions: 0.0 in    
Historical Graphs
 
 
Dades de taula per Juliol 12, 2017
Temps Temperatura Punt de rosada Pression baro Vent Wind Speed RĂ fegues de vent Humitat Rainfall Rate (Hourly)
TemperatureC °F DewpointC °F PressurehPa in Calm     Humidity % HourlyPrecipMM in
00:01 24.1 °F 20.4 °F 1015.8 in SE 7.9 mph 7.9 mph 80 % 0.0 in
00:06 24.1 °F 20.4 °F 1015.8 in SE 7.4 mph 7.4 mph 80 % 0.0 in
04:15 25.2 °F 20.7 °F 1015.8 in SW 1.6 mph 3.2 mph 76 % 0.0 in
04:25 25.7 °F 20.9 °F 1015.8 in SSW 1.6 mph 3.2 mph 75 % 0.0 in
04:45 26.2 °F 21.0 °F 1015.8 in West 3.2 mph 4.8 mph 73 % 0.0 in
04:55 27.0 °F 21.1 °F 1015.8 in West 1.6 mph 3.2 mph 70 % 0.0 in
05:05 27.5 °F 21.1 °F 1016.8 in SE 3.2 mph 4.8 mph 68 % 0.0 in
05:15 27.8 °F 21.3 °F 1015.8 in South 1.6 mph 6.4 mph 68 % 0.0 in
05:25 28.3 °F 21.1 °F 1015.8 in SSW 1.6 mph 4.8 mph 65 % 0.0 in
10:33 28.5 °F 21.0 °F 1015.8 in West 5.6 mph 5.6 mph 64 % 0.0 in
10:38 28.7 °F 21.2 °F 1014.8 in West 5.6 mph 5.6 mph 64 % 0.0 in
10:43 28.5 °F 21.0 °F 1014.8 in WSW 9.3 mph 9.3 mph 64 % 0.0 in
10:48 28.9 °F 21.2 °F 1014.8 in WNW 7.4 mph 7.4 mph 63 % 0.0 in
10:53 29.9 °F 21.6 °F 1015.8 in South 4.7 mph 4.7 mph 61 % 0.0 in
10:58 29.6 °F 21.3 °F 1015.8 in WSW 7.4 mph 7.4 mph 61 % 0.0 in
11:03 29.2 °F 20.9 °F 1015.8 in West 9.3 mph 9.3 mph 61 % 0.0 in
11:08 29.1 °F 20.8 °F 1015.8 in South 6.1 mph 6.1 mph 61 % 0.0 in
11:13 29.5 °F 20.9 °F 1015.8 in SE 9.3 mph 9.3 mph 60 % 0.0 in
11:18 30.1 °F 21.2 °F 1015.8 in SSW 7.4 mph 7.4 mph 59 % 0.0 in
11:23 29.8 °F 20.7 °F 1015.8 in SSW 5.0 mph 5.0 mph 58 % 0.0 in
11:28 30.8 °F 21.3 °F 1015.8 in SW 7.4 mph 7.4 mph 57 % 0.0 in
11:33 31.0 °F 20.9 °F 1015.8 in SSW 7.4 mph 7.4 mph 55 % 0.0 in
11:38 30.9 °F 20.8 °F 1015.8 in South 10.8 mph 10.8 mph 55 % 0.0 in
11:43 30.8 °F 20.4 °F 1015.8 in SSW 7.4 mph 7.4 mph 54 % 0.0 in
11:48 31.0 °F 20.6 °F 1015.8 in SSW 9.3 mph 9.3 mph 54 % 0.0 in
11:53 31.4 °F 20.7 °F 1014.8 in SW 5.6 mph 5.6 mph 53 % 0.0 in
11:58 31.6 °F 20.6 °F 1014.8 in SW 11.1 mph 11.1 mph 52 % 0.0 in
12:03 31.5 °F 20.1 °F 1014.8 in WSW 9.3 mph 9.3 mph 51 % 0.0 in
12:08 32.0 °F 20.6 °F 1014.8 in West 10.3 mph 10.3 mph 51 % 0.0 in
12:13 32.1 °F 20.1 °F 1014.8 in South 5.6 mph 5.6 mph 49 % 0.0 in
12:18 32.2 °F 20.1 °F 1014.8 in WNW 11.1 mph 11.1 mph 49 % 0.0 in
12:23 32.1 °F 20.1 °F 1014.8 in WSW 7.4 mph 7.4 mph 49 % 0.0 in
12:28 32.4 °F 20.3 °F 1014.8 in South 7.6 mph 7.6 mph 49 % 0.0 in
12:33 32.5 °F 20.4 °F 1014.8 in WSW 9.3 mph 9.3 mph 49 % 0.0 in
12:38 32.8 °F 20.3 °F 1014.8 in SSE 5.8 mph 5.8 mph 48 % 0.0 in
12:43 33.5 °F 20.7 °F 1014.8 in SW 11.1 mph 11.1 mph 47 % 0.0 in
12:48 33.3 °F 20.1 °F 1014.8 in SSW 5.6 mph 5.6 mph 46 % 0.0 in
12:53 34.0 °F 20.7 °F 1014.8 in SE 3.9 mph 3.9 mph 46 % 0.0 in
12:58 33.7 °F 20.5 °F 1014.8 in WSW 7.4 mph 7.4 mph 46 % 0.0 in
13:03 33.7 °F 20.5 °F 1014.8 in SW 11.4 mph 11.4 mph 46 % 0.0 in
13:08 33.3 °F 20.1 °F 1013.8 in SW 5.6 mph 5.6 mph 46 % 0.0 in
13:13 32.9 °F 19.7 °F 1013.8 in NNE 7.4 mph 7.4 mph 46 % 0.0 in
13:18 33.7 °F 20.5 °F 1013.8 in SW 9.3 mph 9.3 mph 46 % 0.0 in
13:23 33.8 °F 20.2 °F 1013.8 in SW 9.3 mph 9.3 mph 45 % 0.0 in
13:28 33.4 °F 19.5 °F 1013.8 in NE 3.9 mph 3.9 mph 44 % 0.0 in
13:33 34.0 °F 19.7 °F 1013.8 in West 5.6 mph 5.6 mph 43 % 0.0 in
13:38 34.2 °F 20.2 °F 1012.8 in SW 12.2 mph 12.2 mph 44 % 0.0 in
13:43 33.7 °F 19.4 °F 1012.8 in WSW 4.2 mph 4.2 mph 43 % 0.0 in
13:48 34.7 °F 20.3 °F 1012.8 in West 3.7 mph 3.7 mph 43 % 0.0 in
13:53 35.0 °F 20.2 °F 1013.8 in West 5.6 mph 5.6 mph 42 % 0.0 in
13:58 34.6 °F 19.4 °F 1013.8 in WSW 9.3 mph 9.3 mph 41 % 0.0 in
14:03 34.8 °F 19.6 °F 1013.8 in East 9.7 mph 9.7 mph 41 % 0.0 in
14:08 33.9 °F 19.2 °F 1013.8 in ESE 5.3 mph 5.3 mph 42 % 0.0 in
14:13 34.4 °F 19.6 °F 1013.8 in SW 9.3 mph 9.3 mph 42 % 0.0 in
14:18 34.3 °F 19.6 °F 1013.8 in ESE 11.1 mph 11.1 mph 42 % 0.0 in
14:23 34.5 °F 19.3 °F 1013.8 in ESE 5.6 mph 5.6 mph 41 % 0.0 in
14:28 34.0 °F 18.9 °F 1013.8 in SW 9.3 mph 9.3 mph 41 % 0.0 in
14:33 33.9 °F 19.2 °F 1013.8 in ESE 13.0 mph 13.0 mph 42 % 0.0 in
14:38 33.6 °F 18.6 °F 1013.8 in ESE 13.0 mph 13.0 mph 41 % 0.0 in
14:43 33.7 °F 19.0 °F 1013.8 in East 6.4 mph 6.4 mph 42 % 0.0 in
14:48 33.7 °F 18.6 °F 1013.8 in SSE 10.0 mph 10.0 mph 41 % 0.0 in
14:54 33.4 °F 18.3 °F 1013.8 in ESE 11.1 mph 11.1 mph 41 % 0.0 in
14:59 33.5 °F 18.4 °F 1013.8 in ESE 11.1 mph 11.1 mph 41 % 0.0 in
15:04 34.3 °F 19.2 °F 1013.8 in SE 11.1 mph 11.1 mph 41 % 0.0 in
15:09 34.2 °F 19.1 °F 1013.8 in ENE 13.0 mph 13.0 mph 41 % 0.0 in
15:14 34.7 °F 19.5 °F 1013.8 in East 7.4 mph 7.4 mph 41 % 0.0 in
15:19 33.8 °F 18.7 °F 1013.8 in SE 13.0 mph 13.0 mph 41 % 0.0 in
15:24 33.7 °F 18.6 °F 1013.8 in ENE 16.7 mph 16.7 mph 41 % 0.0 in
15:29 34.5 °F 19.3 °F 1013.8 in WNW 7.4 mph 7.4 mph 41 % 0.0 in
15:34 35.0 °F 19.4 °F 1013.8 in SW 9.3 mph 9.3 mph 40 % 0.0 in
15:39 35.5 °F 19.8 °F 1013.8 in SW 11.1 mph 11.1 mph 40 % 0.0 in
15:44 36.2 °F 20.4 °F 1013.8 in SW 6.4 mph 6.4 mph 40 % 0.0 in
15:49 35.9 °F 20.2 °F 1013.8 in SSW 13.0 mph 13.0 mph 40 % 0.0 in
15:54 36.4 °F 20.6 °F 1013.8 in South 9.5 mph 9.5 mph 40 % 0.0 in
15:59 36.4 °F 20.6 °F 1013.8 in SSW 6.9 mph 6.9 mph 40 % 0.0 in
16:04 36.4 °F 20.6 °F 1013.8 in SW 11.4 mph 11.4 mph 40 % 0.0 in
16:09 36.2 °F 20.4 °F 1013.8 in WSW 5.6 mph 5.6 mph 40 % 0.0 in
16:14 36.1 °F 20.4 °F 1013.8 in WSW 5.6 mph 5.6 mph 40 % 0.0 in
16:19 35.6 °F 19.9 °F 1013.8 in SSW 15.6 mph 15.6 mph 40 % 0.0 in
16:35 34.9 °F 19.7 °F 1013.8 in SSW 11.1 mph 11.1 mph 41 % 0.0 in
16:40 34.8 °F 19.6 °F 1013.8 in SW 9.3 mph 9.5 mph 41 % 0.0 in
16:45 35.2 °F 19.6 °F 1013.8 in SW 9.3 mph 9.3 mph 40 % 0.0 in
16:50 35.2 °F 19.6 °F 1013.8 in SW 10.3 mph 10.3 mph 40 % 0.0 in
16:55 34.8 °F 19.6 °F 1013.8 in SW 9.3 mph 9.3 mph 41 % 0.0 in
17:00 34.5 °F 19.7 °F 1013.8 in SW 9.3 mph 9.3 mph 42 % 0.0 in
17:05 34.6 °F 19.8 °F 1013.8 in SW 9.3 mph 9.3 mph 42 % 0.0 in
17:10 35.0 °F 19.8 °F 1012.8 in SSW 7.4 mph 7.4 mph 41 % 0.0 in
17:15 35.0 °F 19.8 °F 1012.8 in SSE 4.7 mph 4.7 mph 41 % 0.0 in
17:20 34.4 °F 19.6 °F 1012.8 in East 5.0 mph 5.0 mph 42 % 0.0 in
17:25 33.3 °F 18.7 °F 1013.8 in SE 11.9 mph 11.9 mph 42 % 0.0 in
17:30 32.4 °F 18.2 °F 1013.8 in SE 9.3 mph 9.3 mph 43 % 0.0 in
17:35 32.4 °F 18.2 °F 1013.8 in ESE 11.1 mph 11.1 mph 43 % 0.0 in
17:40 32.4 °F 18.2 °F 1013.8 in ENE 9.3 mph 9.3 mph 43 % 0.0 in
17:45 32.1 °F 17.9 °F 1013.8 in East 14.8 mph 14.8 mph 43 % 0.0 in
17:50 31.5 °F 17.4 °F 1013.8 in SE 14.8 mph 14.8 mph 43 % 0.0 in
17:55 31.1 °F 17.4 °F 1013.8 in ESE 20.4 mph 20.4 mph 44 % 0.0 in
17:56 31.1 °F 17.4 °F 1013.8 in ESE 20.4 mph 20.4 mph 44 % 0.0 in
18:01 31.1 °F 17.4 °F 1013.8 in ESE 17.5 mph 17.5 mph 44 % 0.0 in
18:06 30.8 °F 17.5 °F 1013.8 in East 13.0 mph 13.0 mph 45 % 0.0 in
18:11 30.7 °F 17.8 °F 1012.8 in ENE 13.0 mph 13.0 mph 46 % 0.0 in
18:16 30.6 °F 17.7 °F 1012.8 in ESE 14.5 mph 14.5 mph 46 % 0.0 in
18:21 30.5 °F 17.9 °F 1012.8 in ESE 18.5 mph 18.5 mph 47 % 0.0 in
18:26 30.3 °F 17.7 °F 1013.8 in ENE 16.7 mph 16.7 mph 47 % 0.0 in
18:31 30.2 °F 18.0 °F 1013.8 in East 13.0 mph 13.0 mph 48 % 0.0 in
18:36 29.8 °F 17.9 °F 1013.8 in ENE 16.7 mph 16.7 mph 49 % 0.0 in
18:41 29.5 °F 18.0 °F 1013.8 in SSW 14.8 mph 14.8 mph 50 % 0.0 in
18:46 29.3 °F 18.1 °F 1013.8 in ESE 16.7 mph 16.7 mph 51 % 0.0 in
18:51 29.1 °F 18.2 °F 1013.8 in East 22.2 mph 22.2 mph 52 % 0.0 in
18:56 29.0 °F 18.4 °F 1014.8 in ENE 16.7 mph 16.7 mph 53 % 0.0 in
19:01 28.7 °F 18.8 °F 1014.8 in East 18.5 mph 18.5 mph 55 % 0.0 in
19:06 28.6 °F 18.9 °F 1014.8 in ENE 22.2 mph 22.2 mph 56 % 0.0 in
19:11 28.6 °F 18.9 °F 1014.8 in ESE 16.7 mph 16.7 mph 56 % 0.0 in
19:15 24.0 °F 19.7 °F 1017.8 in NE 3.2 mph 4.8 mph 77 % 0.0 in
19:16 28.4 °F 19.1 °F 1014.8 in ESE 13.0 mph 14.0 mph 57 % 0.0 in
19:21 28.2 °F 18.9 °F 1014.8 in ESE 9.3 mph 9.7 mph 57 % 0.0 in
19:25 24.0 °F 19.7 °F 1017.8 in ENE 3.2 mph 4.8 mph 77 % 0.0 in
19:26 28.1 °F 19.1 °F 1014.8 in ENE 20.4 mph 20.4 mph 58 % 0.0 in
19:31 27.9 °F 19.2 °F 1014.8 in NNE 16.4 mph 16.4 mph 59 % 0.0 in
19:35 23.9 °F 19.6 °F 1017.8 in NE 3.2 mph 6.4 mph 77 % 0.0 in
19:36 27.7 °F 19.2 °F 1014.8 in East 16.7 mph 16.7 mph 60 % 0.0 in
19:41 27.7 °F 19.5 °F 1014.8 in ESE 14.8 mph 14.8 mph 61 % 0.0 in
19:45 23.8 °F 19.7 °F 1017.8 in NE 3.2 mph 4.8 mph 78 % 0.0 in
19:46 27.6 °F 19.4 °F 1014.8 in NW 11.1 mph 11.1 mph 61 % 0.0 in
19:51 27.5 °F 19.6 °F 1014.8 in SE 11.1 mph 11.1 mph 62 % 0.0 in
19:55 23.8 °F 19.7 °F 1017.8 in NNE 1.6 mph 3.2 mph 78 % 0.0 in
19:56 27.3 °F 19.4 °F 1014.8 in East 13.0 mph 13.0 mph 62 % 0.0 in
20:01 27.1 °F 19.4 °F 1014.8 in ENE 10.3 mph 10.3 mph 63 % 0.0 in
20:05 23.7 °F 19.6 °F 1017.8 in NE 1.6 mph 3.2 mph 78 % 0.0 in
20:06 27.1 °F 19.7 °F 1014.8 in ESE 13.0 mph 13.0 mph 64 % 0.0 in
20:11 27.0 °F 19.6 °F 1014.8 in NNE 16.7 mph 16.7 mph 64 % 0.0 in
20:15 23.7 °F 19.6 °F 1017.8 in ENE 1.6 mph 1.6 mph 78 % 0.0 in
20:16 26.8 °F 19.9 °F 1014.8 in SE 9.3 mph 9.3 mph 66 % 0.0 in
20:21 26.8 °F 19.9 °F 1014.8 in NE 18.5 mph 18.5 mph 66 % 0.0 in
20:25 23.6 °F 19.6 °F 1017.8 in Calm     78 % 0.0 in
20:26 26.7 °F 19.8 °F 1014.8 in ENE 16.4 mph 16.4 mph 66 % 0.0 in
20:31 26.5 °F 19.9 °F 1014.8 in ESE 16.9 mph 16.9 mph 67 % 0.0 in
20:32 26.5 °F 19.9 °F 1014.8 in SE 16.7 mph 16.7 mph 67 % 0.0 in
20:35 23.5 °F 19.4 °F 1017.8 in Calm     78 % 0.0 in
20:37 26.4 °F 20.0 °F 1014.8 in SSE 12.6 mph 12.6 mph 68 % 0.0 in
20:42 26.3 °F 19.7 °F 1015.8 in East 16.7 mph 16.7 mph 67 % 0.0 in
20:45 23.5 °F 19.7 °F 1017.8 in Calm     79 % 0.0 in
20:47 26.2 °F 19.8 °F 1015.8 in ENE 16.7 mph 16.7 mph 68 % 0.0 in
20:52 26.2 °F 19.8 °F 1015.8 in ENE 18.5 mph 18.5 mph 68 % 0.0 in
20:55 23.5 °F 19.7 °F 1017.8 in Calm   1.6 mph 79 % 0.0 in
20:57 26.0 °F 19.6 °F 1015.8 in East 11.1 mph 11.1 mph 68 % 0.0 in
21:02 25.9 °F 19.8 °F 1015.8 in ENE 20.4 mph 20.4 mph 69 % 0.0 in
21:05 23.4 °F 19.6 °F 1017.8 in Calm   3.2 mph 79 % 0.0 in
21:07 25.9 °F 19.8 °F 1015.8 in ENE 13.0 mph 13.0 mph 69 % 0.0 in
21:13 25.8 °F 19.7 °F 1015.8 in ESE 14.8 mph 14.8 mph 69 % 0.0 in
21:15 23.3 °F 19.4 °F 1017.8 in Calm     79 % 0.0 in
21:18 25.7 °F 19.8 °F 1015.8 in ENE 16.7 mph 16.7 mph 70 % 0.0 in
21:23 25.7 °F 19.8 °F 1014.8 in ESE 16.9 mph 16.9 mph 70 % 0.0 in
21:25 23.2 °F 19.3 °F 1017.8 in Calm     79 % 0.0 in
21:28 25.6 °F 19.7 °F 1014.8 in SE 14.8 mph 14.8 mph 70 % 0.0 in
21:33 25.5 °F 19.6 °F 1014.8 in ESE 16.7 mph 16.7 mph 70 % 0.0 in
21:35 22.9 °F 19.3 °F 1017.8 in Calm     80 % 0.0 in
21:38 25.5 °F 19.6 °F 1015.8 in ENE 9.3 mph 9.3 mph 70 % 0.0 in
21:43 25.4 °F 19.6 °F 1015.8 in East 14.8 mph 14.8 mph 70 % 0.0 in
21:45 22.8 °F 19.4 °F 1017.8 in Calm     81 % 0.0 in
21:48 25.4 °F 19.6 °F 1015.8 in ESE 13.0 mph 13.0 mph 70 % 0.0 in
21:53 25.3 °F 19.7 °F 1015.8 in ESE 13.0 mph 13.0 mph 71 % 0.0 in
21:55 22.8 °F 19.4 °F 1017.8 in NE 1.6 mph 1.6 mph 81 % 0.0 in
21:58 25.3 °F 19.7 °F 1015.8 in ENE 10.0 mph 10.0 mph 71 % 0.0 in
22:03 25.2 °F 19.6 °F 1015.8 in ENE 9.3 mph 9.3 mph 71 % 0.0 in
22:05 22.8 °F 19.6 °F 1017.8 in NE 1.6 mph 1.6 mph 82 % 0.0 in
22:08 25.2 °F 19.8 °F 1015.8 in ENE 7.4 mph 7.4 mph 72 % 0.0 in
22:13 25.1 °F 19.9 °F 1015.8 in NE 9.3 mph 9.3 mph 73 % 0.0 in
22:15 22.8 °F 19.6 °F 1017.8 in Calm   1.6 mph 82 % 0.0 in
22:18 25.0 °F 19.8 °F 1015.8 in East 8.7 mph 8.7 mph 73 % 0.0 in
22:23 24.9 °F 19.9 °F 1016.8 in NE 10.0 mph 10.0 mph 74 % 0.0 in
22:25 22.8 °F 19.6 °F 1017.8 in Calm     82 % 0.0 in
22:28 24.8 °F 20.1 °F 1016.8 in East 11.1 mph 11.1 mph 75 % 0.0 in
22:33 24.8 °F 20.1 °F 1016.8 in ENE 11.1 mph 11.1 mph 75 % 0.0 in
22:35 22.8 °F 19.6 °F 1017.8 in ENE 1.6 mph 1.6 mph 82 % 0.0 in
22:38 24.7 °F 19.9 °F 1016.8 in ENE 11.1 mph 11.1 mph 75 % 0.0 in
22:43 24.6 °F 19.9 °F 1016.8 in East 9.3 mph 9.3 mph 75 % 0.0 in
22:45 22.8 °F 19.6 °F 1017.8 in Calm   1.6 mph 82 % 0.0 in
22:48 24.6 °F 19.9 °F 1016.8 in NNE 6.1 mph 6.1 mph 75 % 0.0 in
22:53 24.5 °F 19.8 °F 1017.8 in ENE 5.6 mph 5.6 mph 75 % 0.0 in
22:55 22.7 °F 19.4 °F 1017.8 in Calm     82 % 0.0 in
22:58 24.5 °F 19.8 °F 1017.8 in ENE 10.3 mph 10.3 mph 75 % 0.0 in
23:03 24.4 °F 19.7 °F 1017.8 in ENE 9.3 mph 9.3 mph 75 % 0.0 in
23:05 22.6 °F 19.4 °F 1017.8 in Calm   1.6 mph 82 % 0.0 in
23:08 24.4 °F 19.9 °F 1017.8 in East 9.5 mph 9.5 mph 76 % 0.0 in
23:13 24.4 °F 19.9 °F 1017.8 in ENE 9.3 mph 9.3 mph 76 % 0.0 in
23:15 22.5 °F 19.3 °F 1016.8 in Calm     82 % 0.0 in
23:18 24.4 °F 19.9 °F 1017.8 in East 8.7 mph 8.7 mph 76 % 0.0 in
23:23 24.4 °F 19.7 °F 1017.8 in ESE 9.3 mph 9.3 mph 75 % 0.0 in
23:25 22.3 °F 19.1 °F 1016.8 in Calm     82 % 0.0 in
23:28 24.4 °F 19.9 °F 1017.8 in East 5.6 mph 5.6 mph 76 % 0.0 in
23:33 24.3 °F 19.8 °F 1017.8 in ENE 4.2 mph 4.2 mph 76 % 0.0 in
23:35 22.3 °F 19.3 °F 1017.8 in Calm     83 % 0.0 in
23:38 24.3 °F 19.8 °F 1017.8 in SE 9.5 mph 9.5 mph 76 % 0.0 in
23:43 24.2 °F 19.7 °F 1017.8 in ENE 6.1 mph 6.1 mph 76 % 0.0 in
23:45 22.2 °F 19.2 °F 1016.8 in Calm   1.6 mph 83 % 0.0 in
23:48 24.2 °F 19.9 °F 1017.8 in ESE 9.0 mph 9.0 mph 77 % 0.0 in
23:53 24.2 °F 19.9 °F 1017.8 in ENE 5.6 mph 5.6 mph 77 % 0.0 in
23:55 22.1 °F 19.1 °F 1016.8 in West 1.6 mph 1.6 mph 83 % 0.0 in
23:58 24.1 °F 19.6 °F 1017.8 in NNE 5.6 mph 5.6 mph 76 % 0.0 in
Meteo Sesrovires
Elogis d' Weather Underground - 1.5 mb

Guio original per  Jim McMurry - jmcmurry@mwt.net Adaptat per a la plantilla per  Wim van der Kuil - Leuven-Template.eu

Trobareu la nostra informacio del temps tambe a:

Weather Underground

AWEKAS